createdAt,value
2022-07-30T00:00:36.532Z,14.98
2022-07-30T00:03:04.589Z,17.52
2022-07-30T00:05:32.828Z,15.80
2022-07-30T00:08:00.712Z,18.33
2022-07-30T00:10:28.907Z,15.48
2022-07-30T00:12:57.212Z,13.85
2022-07-30T00:15:28.237Z,21.75
2022-07-30T00:17:57.704Z,17.23
2022-07-30T00:20:27.934Z,15.05
2022-07-30T00:22:56.418Z,16.42
2022-07-30T00:25:24.445Z,24.10
2022-07-30T00:27:52.278Z,16.73
2022-07-30T00:30:20.222Z,17.98
2022-07-30T00:32:48.692Z,21.23
2022-07-30T00:35:18.084Z,17.40
2022-07-30T00:37:46.176Z,17.15
2022-07-30T00:40:15.272Z,18.02
2022-07-30T00:42:46.597Z,22.38
2022-07-30T00:45:16.138Z,22.52
2022-07-30T00:47:44.585Z,22.20
2022-07-30T00:50:14.645Z,19.42
2022-07-30T00:52:45.132Z,18.80
2022-07-30T00:55:16.266Z,20.02
2022-07-30T00:57:45.383Z,21.23
2022-07-30T01:00:16.501Z,22.30
2022-07-30T01:02:46.078Z,19.95
2022-07-30T01:05:15.156Z,25.23
2022-07-30T01:07:44.696Z,23.08
2022-07-30T01:10:16.507Z,20.17
2022-07-30T01:12:45.876Z,21.45
2022-07-30T01:15:17.268Z,23.95
2022-07-30T01:17:49.854Z,22.83
2022-07-30T01:20:27.424Z,26.17
2022-07-30T01:23:06.348Z,26.02
2022-07-30T01:26:01.546Z,23.13
2022-07-30T01:28:33.703Z,27.92
2022-07-30T01:31:04.539Z,19.73
2022-07-30T01:33:33.820Z,23.10
2022-07-30T01:36:03.428Z,25.10
2022-07-30T01:38:35.078Z,27.63
2022-07-30T01:41:07.843Z,28.55
2022-07-30T01:43:37.922Z,27.98
2022-07-30T01:46:07.706Z,26.35
2022-07-30T01:48:41.490Z,33.67
2022-07-30T01:51:13.655Z,28.35
2022-07-30T01:53:49.161Z,27.63
2022-07-30T01:56:27.152Z,30.60
2022-07-30T01:58:58.175Z,27.25
2022-07-30T02:01:28.205Z,28.60
2022-07-30T02:04:03.315Z,32.10
2022-07-30T02:06:36.209Z,31.33
2022-07-30T02:09:10.906Z,30.67
2022-07-30T02:12:03.977Z,25.25
2022-07-30T02:14:40.463Z,28.48
2022-07-30T02:17:18.492Z,32.83
2022-07-30T02:19:52.507Z,36.63
2022-07-30T02:22:23.383Z,31.25
2022-07-30T02:24:53.152Z,34.00
2022-07-30T02:27:27.295Z,33.53
2022-07-30T02:29:58.784Z,35.58
2022-07-30T02:32:34.902Z,35.28
2022-07-30T02:35:10.479Z,26.25
2022-07-30T02:37:43.859Z,35.17
2022-07-30T02:40:16.922Z,35.25
2022-07-30T02:42:48.569Z,35.60
2022-07-30T02:45:21.252Z,35.08
2022-07-30T02:47:54.633Z,39.38
2022-07-30T02:50:25.899Z,37.55
2022-07-30T02:52:57.126Z,31.90
2022-07-30T02:55:27.827Z,27.58
2022-07-30T02:57:58.696Z,30.83
2022-07-30T03:00:28.365Z,36.00
2022-07-30T03:02:58.544Z,33.60
2022-07-30T03:05:27.435Z,34.92
2022-07-30T03:07:59.122Z,31.92
2022-07-30T03:10:29.015Z,34.78
2022-07-30T03:13:01.192Z,34.35
2022-07-30T03:15:31.186Z,35.20
2022-07-30T03:18:01.134Z,40.55
2022-07-30T03:20:33.172Z,38.95
2022-07-30T03:23:03.409Z,42.78
2022-07-30T03:25:33.185Z,39.53
2022-07-30T03:28:04.458Z,41.35
2022-07-30T03:30:35.021Z,38.15
2022-07-30T03:33:04.089Z,36.85
2022-07-30T03:35:33.674Z,41.75
2022-07-30T03:38:02.341Z,37.13
2022-07-30T03:40:31.753Z,33.95
2022-07-30T03:43:00.890Z,34.80
2022-07-30T03:45:31.852Z,37.72
2022-07-30T03:48:12.970Z,25.20
2022-07-30T03:50:46.942Z,25.55
2022-07-30T03:53:16.203Z,27.75
2022-07-30T03:56:03.459Z,30.08
2022-07-30T03:58:50.437Z,25.70
2022-07-30T04:01:20.389Z,30.02
2022-07-30T04:03:48.471Z,24.02
2022-07-30T04:06:16.832Z,27.48
2022-07-30T04:08:45.917Z,30.30
2022-07-30T04:11:14.078Z,28.83
2022-07-30T04:13:41.894Z,29.45
2022-07-30T04:16:38.956Z,34.78
2022-07-30T04:19:12.527Z,31.00
2022-07-30T04:21:42.656Z,37.97
2022-07-30T04:24:14.107Z,39.88
2022-07-30T04:26:42.852Z,38.53
2022-07-30T04:29:13.727Z,35.28
2022-07-30T04:31:42.621Z,33.53
2022-07-30T04:34:32.003Z,29.48
2022-07-30T04:37:00.866Z,27.38
2022-07-30T04:39:30.432Z,18.10
2022-07-30T04:41:59.818Z,19.15
2022-07-30T04:44:48.526Z,13.75
2022-07-30T04:47:27.159Z,16.83
2022-07-30T04:50:23.538Z,14.75
2022-07-30T04:52:53.562Z,15.52
2022-07-30T04:55:28.332Z,10.80
2022-07-30T04:57:58.708Z,13.02
2022-07-30T05:00:32.245Z,14.45
2022-07-30T05:03:04.743Z,10.13
2022-07-30T05:05:39.882Z,11.48
2022-07-30T05:08:09.391Z,10.95
2022-07-30T05:10:39.718Z,11.75
2022-07-30T05:13:13.159Z,11.38
2022-07-30T05:15:44.813Z,12.90
2022-07-30T05:18:14.624Z,14.50
2022-07-30T05:20:46.224Z,13.73
2022-07-30T05:23:26.753Z,13.23
2022-07-30T05:26:20.828Z,13.48
2022-07-30T05:28:56.726Z,16.45
2022-07-30T05:31:40.085Z,14.13
2022-07-30T05:34:08.501Z,11.40
2022-07-30T05:36:45.766Z,16.02
2022-07-30T05:39:16.866Z,16.07
2022-07-30T05:42:05.114Z,15.43
2022-07-30T05:44:40.546Z,13.48
2022-07-30T05:47:08.802Z,13.93
2022-07-30T05:49:38.912Z,10.90
2022-07-30T05:52:12.610Z,12.27
2022-07-30T05:54:41.260Z,11.57
2022-07-30T05:57:27.756Z,11.45
2022-07-30T05:59:55.591Z,11.30
2022-07-30T06:02:43.044Z,13.00
2022-07-30T06:05:30.716Z,14.05
2022-07-30T06:08:03.274Z,12.67
2022-07-30T06:10:32.844Z,10.88
2022-07-30T06:13:01.344Z,8.82
2022-07-30T06:15:29.553Z,11.05
2022-07-30T06:18:01.689Z,12.38
2022-07-30T06:20:52.118Z,10.02
2022-07-30T06:23:45.395Z,12.97
2022-07-30T06:26:18.628Z,12.88
2022-07-30T06:28:47.155Z,11.18
2022-07-30T06:31:20.255Z,11.75
2022-07-30T06:33:48.478Z,12.15
2022-07-30T06:36:16.454Z,12.15
2022-07-30T06:38:54.465Z,11.27
2022-07-30T06:41:34.452Z,9.05
2022-07-30T06:44:02.269Z,8.45
2022-07-30T06:46:53.480Z,9.77
2022-07-30T06:49:25.987Z,11.25
2022-07-30T06:51:55.387Z,8.93
2022-07-30T06:54:25.144Z,11.13
2022-07-30T06:57:13.477Z,15.68
2022-07-30T06:59:56.250Z,13.52
2022-07-30T07:02:32.637Z,17.25
2022-07-30T07:05:23.827Z,15.18
2022-07-30T07:07:59.280Z,13.38
2022-07-30T07:10:37.239Z,10.68
2022-07-30T07:13:14.231Z,16.33
2022-07-30T07:15:42.870Z,14.18
2022-07-30T07:18:16.524Z,12.57
2022-07-30T07:21:03.270Z,10.13
2022-07-30T07:23:41.593Z,14.32
2022-07-30T07:26:30.765Z,9.88
2022-07-30T07:29:02.208Z,9.70
2022-07-30T07:32:06.081Z,11.05
2022-07-30T07:34:22.147Z,16.38
2022-07-30T07:36:50.947Z,11.13
2022-07-30T07:39:18.813Z,12.10
2022-07-30T07:41:50.346Z,12.82
2022-07-30T07:44:24.076Z,12.65
2022-07-30T07:46:52.471Z,13.82
2022-07-30T07:49:21.174Z,11.38
2022-07-30T07:51:52.881Z,14.45
2022-07-30T07:54:23.084Z,12.02
2022-07-30T07:56:57.659Z,13.93
2022-07-30T07:59:41.526Z,15.98
2022-07-30T08:02:17.177Z,15.07
2022-07-30T08:05:15.528Z,10.20
2022-07-30T08:07:50.954Z,11.63
2022-07-30T08:10:37.694Z,14.38
2022-07-30T08:13:51.791Z,15.02
2022-07-30T08:16:32.056Z,14.07
2022-07-30T08:19:19.217Z,15.82
2022-07-30T08:21:59.731Z,12.40
2022-07-30T08:27:00.502Z,13.40
2022-07-30T08:29:30.828Z,15.65
2022-07-30T08:31:59.306Z,14.93
2022-07-30T08:34:29.386Z,15.10
2022-07-30T08:36:59.007Z,16.60
2022-07-30T08:39:27.231Z,15.98
2022-07-30T08:41:55.495Z,9.88
2022-07-30T08:44:24.989Z,11.43
2022-07-30T08:46:57.048Z,12.25
2022-07-30T08:49:42.671Z,12.10
2022-07-30T08:52:12.396Z,18.67
2022-07-30T08:54:45.026Z,16.05
2022-07-30T08:57:13.877Z,11.43
2022-07-30T08:59:59.628Z,15.07
2022-07-30T09:02:34.323Z,13.25
2022-07-30T09:05:08.228Z,18.02
2022-07-30T09:07:37.976Z,12.27
2022-07-30T09:10:11.701Z,11.95
2022-07-30T09:12:43.361Z,15.18
2022-07-30T09:15:14.239Z,16.05
2022-07-30T09:17:52.978Z,17.98
2022-07-30T09:20:24.752Z,13.30
2022-07-30T09:22:56.113Z,11.18
2022-07-30T09:25:48.464Z,8.60
2022-07-30T09:28:35.925Z,10.00
2022-07-30T09:31:17.473Z,11.27
2022-07-30T09:34:25.162Z,18.20
2022-07-30T09:37:18.374Z,7.70
2022-07-30T09:40:13.070Z,12.27
2022-07-30T09:43:06.953Z,9.90
2022-07-30T09:45:36.757Z,7.50
2022-07-30T09:48:22.019Z,7.47
2022-07-30T09:50:52.201Z,16.52
2022-07-30T09:53:22.619Z,9.18
2022-07-30T09:55:52.290Z,11.15
2022-07-30T09:58:27.183Z,10.80
2022-07-30T10:00:59.101Z,9.88
2022-07-30T10:03:49.102Z,5.60
2022-07-30T10:06:42.002Z,6.03
2022-07-30T10:09:27.219Z,7.13
2022-07-30T10:11:57.406Z,5.07
2022-07-30T10:14:32.269Z,7.65
2022-07-30T10:17:03.271Z,4.70
2022-07-30T10:19:40.468Z,6.57
2022-07-30T10:22:30.297Z,4.35
2022-07-30T10:25:20.932Z,6.20
2022-07-30T10:30:33.889Z,4.60
2022-07-30T10:33:03.298Z,4.75
2022-07-30T10:35:38.156Z,5.93
2022-07-30T10:38:13.380Z,6.35
2022-07-30T10:40:51.358Z,5.47
2022-07-30T10:43:57.783Z,6.93
2022-07-30T10:46:38.953Z,4.95
2022-07-30T10:49:18.514Z,4.53
2022-07-30T10:51:49.365Z,3.90
2022-07-30T10:54:39.458Z,4.22
2022-07-30T10:57:15.013Z,5.75
2022-07-30T11:00:15.131Z,4.65
2022-07-30T11:03:15.170Z,3.03
2022-07-30T11:05:46.000Z,4.68
2022-07-30T11:08:35.965Z,3.70
2022-07-30T11:12:00.064Z,4.80
2022-07-30T11:14:17.122Z,3.65
2022-07-30T11:17:01.512Z,9.30
2022-07-30T11:19:55.373Z,4.10
2022-07-30T11:22:31.569Z,3.05
2022-07-30T11:27:46.062Z,2.88
2022-07-30T11:30:33.934Z,8.48
2022-07-30T11:33:32.214Z,2.30
2022-07-30T11:36:12.021Z,2.63
2022-07-30T11:38:53.224Z,3.15
2022-07-30T11:41:23.473Z,6.83
2022-07-30T11:44:24.803Z,7.60
2022-07-30T11:46:54.547Z,6.10
2022-07-30T11:49:22.951Z,2.92
2022-07-30T11:51:51.794Z,2.55
2022-07-30T11:54:20.193Z,4.75
2022-07-30T11:57:02.093Z,5.55
2022-07-30T11:59:32.479Z,3.30
2022-07-30T12:02:02.334Z,2.88
2022-07-30T12:04:31.515Z,2.92
2022-07-30T12:07:00.146Z,4.00
2022-07-30T12:09:29.639Z,3.08
2022-07-30T12:11:58.504Z,3.30
2022-07-30T12:14:39.078Z,2.72
2022-07-30T12:17:14.899Z,5.85
2022-07-30T12:19:48.212Z,3.50
2022-07-30T12:22:16.760Z,2.65
2022-07-30T12:24:44.810Z,4.00
2022-07-30T12:27:14.117Z,3.40
2022-07-30T12:29:43.868Z,3.55
2022-07-30T12:32:14.053Z,3.40
2022-07-30T12:34:55.897Z,5.90
2022-07-30T12:37:23.743Z,2.67
2022-07-30T12:40:06.458Z,5.43
2022-07-30T12:42:34.608Z,10.75
2022-07-30T12:45:03.052Z,2.88
2022-07-30T12:47:35.426Z,3.80
2022-07-30T12:50:17.047Z,3.55
2022-07-30T12:52:50.027Z,3.22
2022-07-30T12:55:22.053Z,4.57
2022-07-30T12:58:01.831Z,2.40
2022-07-30T13:00:47.161Z,2.50
2022-07-30T13:03:27.603Z,3.95
2022-07-30T13:06:04.547Z,4.13
2022-07-30T13:08:59.682Z,4.28
2022-07-30T13:11:38.011Z,7.60
2022-07-30T13:14:09.008Z,2.53
2022-07-30T13:16:38.033Z,7.85
2022-07-30T13:19:09.048Z,3.67
2022-07-30T13:21:37.207Z,4.85
2022-07-30T13:24:06.831Z,4.65
2022-07-30T13:26:37.723Z,4.28
2022-07-30T13:29:06.004Z,4.75
2022-07-30T13:31:43.259Z,5.78
2022-07-30T13:34:13.712Z,4.95
2022-07-30T13:36:44.869Z,2.22
2022-07-30T13:39:14.709Z,2.42
2022-07-30T13:41:44.239Z,5.63
2022-07-30T13:44:12.388Z,3.28
2022-07-30T13:46:41.469Z,3.00
2022-07-30T13:49:10.932Z,2.58
2022-07-30T13:51:42.191Z,1.83
2022-07-30T13:54:10.667Z,3.17
2022-07-30T13:56:42.383Z,2.25
2022-07-30T13:59:11.919Z,2.97
2022-07-30T14:01:40.381Z,7.63
2022-07-30T14:04:08.641Z,5.82
2022-07-30T14:06:37.058Z,2.33
2022-07-30T14:09:06.942Z,6.55
2022-07-30T14:11:35.508Z,3.28
2022-07-30T14:14:03.520Z,2.20
2022-07-30T14:16:46.852Z,4.32
2022-07-30T14:19:23.599Z,5.10
2022-07-30T14:21:54.026Z,2.22
2022-07-30T14:24:24.421Z,4.07
2022-07-30T14:26:58.935Z,5.25
2022-07-30T14:29:27.674Z,5.50
2022-07-30T14:31:56.210Z,2.13
2022-07-30T14:34:25.244Z,3.67
2022-07-30T14:36:53.447Z,2.85
2022-07-30T14:39:23.430Z,2.03
2022-07-30T14:41:54.062Z,3.47
2022-07-30T14:44:24.797Z,3.42
2022-07-30T14:46:53.703Z,2.60
2022-07-30T14:49:22.682Z,4.80
2022-07-30T14:51:52.463Z,1.95
2022-07-30T14:54:21.087Z,2.60
2022-07-30T14:56:54.830Z,5.03
2022-07-30T14:59:26.780Z,3.55
2022-07-30T15:01:55.463Z,4.57
2022-07-30T15:04:24.794Z,2.40
2022-07-30T15:06:52.827Z,2.88
2022-07-30T15:09:21.241Z,1.90
2022-07-30T15:12:08.785Z,2.58
2022-07-30T15:14:39.886Z,1.77
2022-07-30T15:17:08.573Z,4.88
2022-07-30T15:19:36.711Z,3.05
2022-07-30T15:22:08.368Z,4.72
2022-07-30T15:24:38.794Z,2.67
2022-07-30T15:27:08.769Z,1.70
2022-07-30T15:29:38.143Z,3.63
2022-07-30T15:32:08.617Z,3.75
2022-07-30T15:34:40.430Z,2.03
2022-07-30T15:37:09.853Z,2.97
2022-07-30T15:39:38.232Z,2.55
2022-07-30T15:42:06.948Z,3.95
2022-07-30T15:44:42.248Z,3.42
2022-07-30T15:47:16.436Z,2.25
2022-07-30T15:49:44.759Z,2.47
2022-07-30T15:52:13.231Z,2.83
2022-07-30T15:54:41.297Z,2.00
2022-07-30T15:57:09.380Z,3.28
2022-07-30T15:59:38.868Z,5.35
2022-07-30T16:02:07.162Z,3.58
2022-07-30T16:04:36.091Z,5.03
2022-07-30T16:07:04.907Z,4.35
2022-07-30T16:09:33.313Z,4.38
2022-07-30T16:12:02.161Z,3.03
2022-07-30T16:14:30.621Z,5.68
2022-07-30T16:17:00.278Z,2.22
2022-07-30T16:19:28.548Z,3.72
2022-07-30T16:21:57.136Z,1.98
2022-07-30T16:24:26.775Z,2.83
2022-07-30T16:26:55.362Z,2.13
2022-07-30T16:29:23.495Z,1.30
2022-07-30T16:31:51.376Z,2.17
2022-07-30T16:34:22.898Z,3.35
2022-07-30T16:36:54.941Z,4.15
2022-07-30T16:39:23.485Z,2.30
2022-07-30T16:41:52.954Z,1.65
2022-07-30T16:44:21.569Z,2.70
2022-07-30T16:46:50.163Z,2.85
2022-07-30T16:49:18.487Z,1.85
2022-07-30T16:51:48.548Z,2.22
2022-07-30T16:54:16.938Z,2.28
2022-07-30T16:56:45.390Z,2.17
2022-07-30T16:59:14.548Z,1.35
2022-07-30T17:01:42.921Z,2.45
2022-07-30T17:04:11.280Z,2.75
2022-07-30T17:06:40.181Z,1.25
2022-07-30T17:09:16.051Z,1.90
2022-07-30T17:11:47.464Z,1.60
2022-07-30T17:14:22.400Z,1.80
2022-07-30T17:16:50.947Z,2.33
2022-07-30T17:19:19.877Z,1.60
2022-07-30T17:21:48.170Z,2.88
2022-07-30T17:24:17.759Z,3.88
2022-07-30T17:26:46.881Z,2.17
2022-07-30T17:29:16.393Z,3.58
2022-07-30T17:31:45.712Z,2.13
2022-07-30T17:34:20.347Z,2.63
2022-07-30T17:36:52.338Z,3.97
2022-07-30T17:40:24.780Z,3.35
2022-07-30T17:42:12.412Z,3.92
2022-07-30T17:44:42.058Z,3.65
2022-07-30T17:47:16.239Z,2.78
2022-07-30T17:49:44.884Z,3.08
2022-07-30T17:52:13.183Z,5.05
2022-07-30T17:54:43.148Z,7.65
2022-07-30T17:57:11.120Z,2.60
2022-07-30T17:59:39.277Z,3.15
2022-07-30T18:02:07.693Z,3.63
2022-07-30T18:04:36.346Z,5.35
2022-07-30T18:07:05.223Z,6.18
2022-07-30T18:09:36.221Z,5.85
2022-07-30T18:12:09.624Z,4.53
2022-07-30T18:14:38.728Z,3.58
2022-07-30T18:17:09.992Z,3.17
2022-07-30T18:19:41.082Z,4.10
2022-07-30T18:22:09.350Z,4.78
2022-07-30T18:24:40.245Z,3.05
2022-07-30T18:27:12.070Z,4.00
2022-07-30T18:29:40.282Z,3.72
2022-07-30T18:32:08.698Z,3.13
2022-07-30T18:34:36.797Z,2.25
2022-07-30T18:37:05.650Z,2.78
2022-07-30T18:39:33.628Z,4.70
2022-07-30T18:42:02.331Z,4.93
2022-07-30T18:44:32.404Z,4.28
2022-07-30T18:47:00.381Z,3.00
2022-07-30T18:49:37.610Z,3.00
2022-07-30T18:52:07.429Z,2.53
2022-07-30T18:54:38.340Z,2.47
2022-07-30T18:57:10.052Z,2.42
2022-07-30T18:59:43.072Z,3.15
2022-07-30T19:02:11.153Z,5.05
2022-07-30T19:04:42.030Z,3.00
2022-07-30T19:07:10.106Z,3.50
2022-07-30T19:09:38.359Z,3.33
2022-07-30T19:12:07.148Z,4.05
2022-07-30T19:14:35.483Z,2.92
2022-07-30T19:17:14.123Z,2.55
2022-07-30T19:19:43.803Z,2.85
2022-07-30T19:22:12.091Z,4.72
2022-07-30T19:24:40.434Z,3.00
2022-07-30T19:27:13.684Z,4.47
2022-07-30T19:29:43.604Z,3.47
2022-07-30T19:32:13.015Z,3.83
2022-07-30T19:34:43.672Z,5.47
2022-07-30T19:37:12.125Z,5.53
2022-07-30T19:40:05.418Z,4.30
2022-07-30T19:42:28.069Z,3.22
2022-07-30T19:44:58.575Z,3.42
2022-07-30T19:47:35.329Z,3.05
2022-07-30T19:50:10.041Z,5.60
2022-07-30T19:52:38.344Z,5.93
2022-07-30T19:55:30.578Z,5.38
2022-07-30T19:57:56.117Z,3.80
2022-07-30T20:00:25.468Z,5.45
2022-07-30T20:02:54.965Z,4.50
2022-07-30T20:05:24.925Z,10.30
2022-07-30T20:07:53.109Z,4.55
2022-07-30T20:10:21.686Z,3.92
2022-07-30T20:12:50.982Z,6.03
2022-07-30T20:15:20.568Z,5.30
2022-07-30T20:17:48.737Z,7.30
2022-07-30T20:20:17.997Z,4.20
2022-07-30T20:22:54.218Z,5.40
2022-07-30T20:25:22.212Z,5.25
2022-07-30T20:27:50.313Z,4.25
2022-07-30T20:30:25.221Z,5.85
2022-07-30T20:32:53.478Z,4.22
2022-07-30T20:35:23.161Z,3.47
2022-07-30T20:37:55.459Z,7.45
2022-07-30T20:42:55.453Z,6.40
2022-07-30T20:45:24.952Z,5.53
2022-07-30T20:47:56.597Z,4.68
2022-07-30T20:50:30.202Z,4.15
2022-07-30T20:52:59.569Z,4.13
2022-07-30T20:55:27.827Z,6.05
2022-07-30T20:58:12.519Z,4.93
2022-07-30T21:00:49.550Z,4.28
2022-07-30T21:03:21.274Z,6.00
2022-07-30T21:05:52.524Z,3.13
2022-07-30T21:08:25.185Z,7.50
2022-07-30T21:10:55.439Z,4.70
2022-07-30T21:13:24.910Z,4.53
2022-07-30T21:16:03.087Z,4.93
2022-07-30T21:18:32.997Z,4.13
2022-07-30T21:21:04.857Z,3.78
2022-07-30T21:23:34.025Z,3.13
2022-07-30T21:26:05.796Z,2.83
2022-07-30T21:28:38.734Z,3.55
2022-07-30T21:31:08.803Z,6.00
2022-07-30T21:33:37.556Z,5.50
2022-07-30T21:36:10.708Z,5.30
2022-07-30T21:38:41.890Z,4.88
2022-07-30T21:41:14.175Z,6.50
2022-07-30T21:43:43.595Z,4.40
2022-07-30T21:46:12.344Z,5.53
2022-07-30T21:48:40.156Z,3.63
2022-07-30T21:51:11.276Z,5.35
2022-07-30T21:53:45.169Z,5.13
2022-07-30T21:56:15.816Z,6.28
2022-07-30T21:58:44.272Z,10.48
2022-07-30T22:01:17.942Z,4.28
2022-07-30T22:04:03.129Z,7.90
2022-07-30T22:06:37.929Z,5.03
2022-07-30T22:09:19.828Z,7.15
2022-07-30T22:11:56.951Z,5.25
2022-07-30T22:14:30.184Z,6.07
2022-07-30T22:16:59.619Z,9.57
2022-07-30T22:19:27.850Z,8.38
2022-07-30T22:21:57.580Z,10.40
2022-07-30T22:24:30.243Z,5.43
2022-07-30T22:27:01.499Z,5.88
2022-07-30T22:29:34.126Z,6.43
2022-07-30T22:32:04.369Z,4.53
2022-07-30T22:34:32.715Z,8.40
2022-07-30T22:37:02.127Z,8.07
2022-07-30T22:39:32.015Z,7.07
2022-07-30T22:42:18.384Z,5.20
2022-07-30T22:44:47.542Z,12.50
2022-07-30T22:47:21.020Z,3.45
2022-07-30T22:49:51.972Z,4.30
2022-07-30T22:52:28.035Z,6.05
2022-07-30T22:55:08.696Z,6.40
2022-07-30T22:57:45.394Z,8.63
2022-07-30T23:00:27.126Z,5.65
2022-07-30T23:02:58.234Z,5.63
2022-07-30T23:05:26.906Z,4.85
2022-07-30T23:07:56.448Z,5.65
2022-07-30T23:10:27.605Z,5.00
2022-07-30T23:12:56.646Z,4.57
2022-07-30T23:15:24.912Z,7.13
2022-07-30T23:17:53.276Z,4.03
2022-07-30T23:20:24.820Z,5.00
2022-07-30T23:22:55.588Z,3.53
2022-07-30T23:25:25.182Z,6.57
2022-07-30T23:28:03.107Z,5.32
2022-07-30T23:30:33.851Z,5.75
2022-07-30T23:33:02.652Z,4.45
2022-07-30T23:35:31.191Z,4.85
2022-07-30T23:38:00.269Z,4.43
2022-07-30T23:40:29.871Z,6.78
2022-07-30T23:42:58.211Z,5.78
2022-07-30T23:45:26.101Z,6.18
2022-07-30T23:48:02.573Z,4.88
2022-07-30T23:50:32.501Z,5.95
2022-07-30T23:53:01.263Z,4.90
2022-07-30T23:55:32.253Z,5.65
2022-07-30T23:58:03.287Z,8.77
